Accueil
METAR-TAF:

METAR-TAF

Aéroports :

Rabat, Maroc

Aéroport international de Rabat-Salé

latitude: 34-03N, longitude: 006-46W, altitude: 84 m

Observation

Le bulletin a été fait il y a 25 minutes, à 06:30 UTC
Vent calme
Température 20°C
Humidité 88%
Pression 1015 hPa
Visibilité: 5000 m
Quelques nuages à une hauteur de 1000 ft
Nuages épars à une hauteur de 1600 ft

METAR: GMME 270630Z 00000KT 5000 FEW010 SCT016 20/18 Q1015 NOSIG

Heure: 06:55 (06:55 UTC)

Prévision

Le bulletin a été fait il y a 1 heure et 55 minutes, à 05:00 UTC
Prévision valable du 27 à 06 UTC au 28 à 12 UTC
Vent 8 kt de nord-ouest
Visibilité: 6000 m
Nuages épars à une hauteur de 1600 ft
Nuages épars à une hauteur de 2600 ft
Temporairement
du 27 à 12 UTC au 27 à 18 UTC
Visibilité 10 km ou plus
pas de nuages en-dessous de 1500 mètres et pas de cumulonimbus.

TAF: GMME 270500Z 2706/2812 32008KT 6000 SCT016 SCT026 TEMPO 2712/2718 CAVOK

Observations et prévisions météorologiques de plus de 4000 aéroports (messages METAR et TAF).

Les stations disponibles sont représentées par des disques jaunes et rouges sur la carte.

Passer la souris dessus pour voir le nom de la station.

Cliquer dessus pour voir les observations et prévisions météorologiques.

Pour changer de carte: cliquez sur les boutons verts avec une croix noire pour zoomer, sur le bouton vert avec un tiret pour effectuer un zoom arrière, ou sur les flèches vertes pour les cartes adjacentes.


METAR-TAF: